sensor_id;sensor_type;location;lat;lon;timestamp;P1;durP1;ratioP1;P2;durP2;ratioP2
6358;SDS011;3212;51.460;11.868;2024-03-22T00:00:44;23.23;;;10.77;;
6358;SDS011;3212;51.460;11.868;2024-03-22T00:04:07;17.87;;;9.37;;
6358;SDS011;3212;51.460;11.868;2024-03-22T00:07:29;19.60;;;9.03;;
6358;SDS011;3212;51.460;11.868;2024-03-22T00:10:52;20.25;;;9.85;;
6358;SDS011;3212;51.460;11.868;2024-03-22T00:14:15;17.47;;;7.80;;
6358;SDS011;3212;51.460;11.868;2024-03-22T00:17:37;19.47;;;8.67;;
6358;SDS011;3212;51.460;11.868;2024-03-22T00:21:00;13.77;;;7.03;;
6358;SDS011;3212;51.460;11.868;2024-03-22T00:24:22;12.37;;;6.60;;
6358;SDS011;3212;51.460;11.868;2024-03-22T00:27:45;14.77;;;6.80;;
6358;SDS011;3212;51.460;11.868;2024-03-22T00:31:08;14.40;;;7.10;;
6358;SDS011;3212;51.460;11.868;2024-03-22T00:34:31;12.57;;;7.00;;
6358;SDS011;3212;51.460;11.868;2024-03-22T00:37:54;14.57;;;6.97;;
6358;SDS011;3212;51.460;11.868;2024-03-22T00:41:16;17.50;;;6.90;;
6358;SDS011;3212;51.460;11.868;2024-03-22T00:44:39;10.63;;;5.70;;
6358;SDS011;3212;51.460;11.868;2024-03-22T00:48:01;12.80;;;5.37;;
6358;SDS011;3212;51.460;11.868;2024-03-22T00:51:25;10.10;;;5.17;;
6358;SDS011;3212;51.460;11.868;2024-03-22T00:54:48;9.87;;;5.80;;
6358;SDS011;3212;51.460;11.868;2024-03-22T00:58:10;10.40;;;4.97;;
6358;SDS011;3212;51.460;11.868;2024-03-22T01:01:33;8.03;;;5.13;;
6358;SDS011;3212;51.460;11.868;2024-03-22T01:04:56;9.47;;;5.10;;
6358;SDS011;3212;51.460;11.868;2024-03-22T01:08:19;11.27;;;4.90;;
6358;SDS011;3212;51.460;11.868;2024-03-22T01:11:42;9.07;;;4.60;;
6358;SDS011;3212;51.460;11.868;2024-03-22T01:15:05;8.10;;;4.10;;
6358;SDS011;3212;51.460;11.868;2024-03-22T01:18:27;8.27;;;4.90;;
6358;SDS011;3212;51.460;11.868;2024-03-22T01:21:50;8.97;;;5.10;;
6358;SDS011;3212;51.460;11.868;2024-03-22T01:25:13;9.75;;;5.05;;
6358;SDS011;3212;51.460;11.868;2024-03-22T01:28:36;7.77;;;5.00;;
6358;SDS011;3212;51.460;11.868;2024-03-22T01:31:58;10.97;;;5.60;;
6358;SDS011;3212;51.460;11.868;2024-03-22T01:35:21;8.23;;;4.60;;
6358;SDS011;3212;51.460;11.868;2024-03-22T01:38:45;10.67;;;5.00;;
6358;SDS011;3212;51.460;11.868;2024-03-22T01:42:08;11.10;;;4.70;;
6358;SDS011;3212;51.460;11.868;2024-03-22T01:45:32;10.57;;;5.50;;
6358;SDS011;3212;51.460;11.868;2024-03-22T01:48:53;9.57;;;5.20;;
6358;SDS011;3212;51.460;11.868;2024-03-22T01:52:16;10.73;;;5.77;;
6358;SDS011;3212;51.460;11.868;2024-03-22T01:55:39;11.00;;;5.73;;
6358;SDS011;3212;51.460;11.868;2024-03-22T01:59:01;11.50;;;5.73;;
6358;SDS011;3212;51.460;11.868;2024-03-22T02:02:24;10.40;;;5.90;;
6358;SDS011;3212;51.460;11.868;2024-03-22T02:05:46;12.93;;;6.70;;
6358;SDS011;3212;51.460;11.868;2024-03-22T02:09:11;9.93;;;5.83;;
6358;SDS011;3212;51.460;11.868;2024-03-22T02:12:33;11.87;;;6.60;;
6358;SDS011;3212;51.460;11.868;2024-03-22T02:15:56;11.33;;;6.10;;
6358;SDS011;3212;51.460;11.868;2024-03-22T02:19:19;12.17;;;6.93;;
6358;SDS011;3212;51.460;11.868;2024-03-22T02:22:41;14.00;;;6.43;;
6358;SDS011;3212;51.460;11.868;2024-03-22T02:26:04;14.43;;;6.20;;
6358;SDS011;3212;51.460;11.868;2024-03-22T02:29:27;13.30;;;7.20;;
6358;SDS011;3212;51.460;11.868;2024-03-22T02:32:49;8.87;;;5.67;;
6358;SDS011;3212;51.460;11.868;2024-03-22T02:36:11;14.67;;;6.83;;
6358;SDS011;3212;51.460;11.868;2024-03-22T02:39:36;11.40;;;6.03;;
6358;SDS011;3212;51.460;11.868;2024-03-22T02:42:58;11.43;;;6.60;;
6358;SDS011;3212;51.460;11.868;2024-03-22T02:46:21;11.40;;;6.27;;
6358;SDS011;3212;51.460;11.868;2024-03-22T02:49:44;15.20;;;6.47;;
6358;SDS011;3212;51.460;11.868;2024-03-22T02:53:06;13.23;;;6.40;;
6358;SDS011;3212;51.460;11.868;2024-03-22T02:56:29;10.47;;;6.17;;
6358;SDS011;3212;51.460;11.868;2024-03-22T02:59:53;10.57;;;5.90;;
6358;SDS011;3212;51.460;11.868;2024-03-22T03:03:15;10.55;;;5.68;;
6358;SDS011;3212;51.460;11.868;2024-03-22T03:06:37;10.40;;;5.60;;
6358;SDS011;3212;51.460;11.868;2024-03-22T03:10:01;11.80;;;6.30;;
6358;SDS011;3212;51.460;11.868;2024-03-22T03:13:23;12.20;;;5.77;;
6358;SDS011;3212;51.460;11.868;2024-03-22T03:16:46;11.50;;;6.60;;
6358;SDS011;3212;51.460;11.868;2024-03-22T03:20:10;10.10;;;5.93;;
6358;SDS011;3212;51.460;11.868;2024-03-22T03:23:34;10.40;;;5.97;;
6358;SDS011;3212;51.460;11.868;2024-03-22T03:26:56;11.50;;;6.30;;
6358;SDS011;3212;51.460;11.868;2024-03-22T03:30:18;13.73;;;6.37;;
6358;SDS011;3212;51.460;11.868;2024-03-22T03:33:42;12.23;;;6.73;;
6358;SDS011;3212;51.460;11.868;2024-03-22T03:37:04;11.83;;;6.50;;
6358;SDS011;3212;51.460;11.868;2024-03-22T03:40:26;12.97;;;6.57;;
6358;SDS011;3212;51.460;11.868;2024-03-22T03:43:50;10.37;;;5.93;;
6358;SDS011;3212;51.460;11.868;2024-03-22T03:47:12;11.37;;;6.20;;
6358;SDS011;3212;51.460;11.868;2024-03-22T03:50:34;10.00;;;6.13;;
6358;SDS011;3212;51.460;11.868;2024-03-22T03:53:57;10.17;;;6.13;;
6358;SDS011;3212;51.460;11.868;2024-03-22T03:57:20;10.70;;;6.13;;
6358;SDS011;3212;51.460;11.868;2024-03-22T04:00:43;10.67;;;6.60;;
6358;SDS011;3212;51.460;11.868;2024-03-22T04:04:06;9.50;;;6.00;;
6358;SDS011;3212;51.460;11.868;2024-03-22T04:07:28;12.70;;;6.67;;
6358;SDS011;3212;51.460;11.868;2024-03-22T04:10:53;12.87;;;6.60;;
6358;SDS011;3212;51.460;11.868;2024-03-22T04:14:15;10.50;;;6.40;;
6358;SDS011;3212;51.460;11.868;2024-03-22T04:17:38;12.87;;;7.00;;
6358;SDS011;3212;51.460;11.868;2024-03-22T04:21:00;11.33;;;6.80;;
6358;SDS011;3212;51.460;11.868;2024-03-22T04:24:23;11.97;;;6.80;;
6358;SDS011;3212;51.460;11.868;2024-03-22T04:27:45;12.77;;;6.70;;
6358;SDS011;3212;51.460;11.868;2024-03-22T04:31:08;14.37;;;6.73;;
6358;SDS011;3212;51.460;11.868;2024-03-22T04:34:31;13.30;;;7.47;;
6358;SDS011;3212;51.460;11.868;2024-03-22T04:37:54;13.07;;;7.15;;
6358;SDS011;3212;51.460;11.868;2024-03-22T04:41:16;11.03;;;6.80;;
6358;SDS011;3212;51.460;11.868;2024-03-22T04:44:39;12.80;;;6.40;;
6358;SDS011;3212;51.460;11.868;2024-03-22T04:48:03;13.10;;;7.80;;
6358;SDS011;3212;51.460;11.868;2024-03-22T04:51:24;10.60;;;6.93;;
6358;SDS011;3212;51.460;11.868;2024-03-22T04:54:47;14.60;;;6.77;;
6358;SDS011;3212;51.460;11.868;2024-03-22T04:58:12;13.37;;;6.70;;
6358;SDS011;3212;51.460;11.868;2024-03-22T05:01:37;11.50;;;7.00;;
6358;SDS011;3212;51.460;11.868;2024-03-22T05:05:00;14.23;;;6.90;;
6358;SDS011;3212;51.460;11.868;2024-03-22T05:08:22;11.23;;;7.00;;
6358;SDS011;3212;51.460;11.868;2024-03-22T05:11:44;13.70;;;7.17;;
6358;SDS011;3212;51.460;11.868;2024-03-22T05:15:07;15.10;;;7.60;;
6358;SDS011;3212;51.460;11.868;2024-03-22T05:18:30;14.40;;;7.20;;
6358;SDS011;3212;51.460;11.868;2024-03-22T05:21:53;15.07;;;7.97;;
6358;SDS011;3212;51.460;11.868;2024-03-22T05:25:15;14.67;;;7.83;;
6358;SDS011;3212;51.460;11.868;2024-03-22T05:28:38;15.77;;;8.53;;
6358;SDS011;3212;51.460;11.868;2024-03-22T05:32:01;13.90;;;7.60;;
6358;SDS011;3212;51.460;11.868;2024-03-22T05:35:23;13.90;;;7.80;;
6358;SDS011;3212;51.460;11.868;2024-03-22T05:38:45;15.50;;;7.47;;
6358;SDS011;3212;51.460;11.868;2024-03-22T05:42:08;14.60;;;7.43;;
6358;SDS011;3212;51.460;11.868;2024-03-22T05:45:31;17.80;;;8.20;;
6358;SDS011;3212;51.460;11.868;2024-03-22T05:48:53;16.43;;;7.70;;
6358;SDS011;3212;51.460;11.868;2024-03-22T05:52:17;14.77;;;7.78;;
6358;SDS011;3212;51.460;11.868;2024-03-22T05:55:40;17.60;;;8.23;;
6358;SDS011;3212;51.460;11.868;2024-03-22T05:59:02;17.60;;;8.23;;
6358;SDS011;3212;51.460;11.868;2024-03-22T06:02:25;14.80;;;7.57;;
6358;SDS011;3212;51.460;11.868;2024-03-22T06:05:49;21.30;;;8.37;;
6358;SDS011;3212;51.460;11.868;2024-03-22T06:09:11;17.23;;;9.37;;
6358;SDS011;3212;51.460;11.868;2024-03-22T06:12:33;18.23;;;9.23;;
6358;SDS011;3212;51.460;11.868;2024-03-22T06:15:56;17.47;;;8.83;;
6358;SDS011;3212;51.460;11.868;2024-03-22T06:19:19;19.20;;;9.10;;
6358;SDS011;3212;51.460;11.868;2024-03-22T06:22:41;19.27;;;9.33;;
6358;SDS011;3212;51.460;11.868;2024-03-22T06:26:04;21.23;;;9.80;;
6358;SDS011;3212;51.460;11.868;2024-03-22T06:29:27;21.60;;;10.90;;
6358;SDS011;3212;51.460;11.868;2024-03-22T06:32:49;21.50;;;10.87;;
6358;SDS011;3212;51.460;11.868;2024-03-22T06:36:12;20.97;;;9.80;;
6358;SDS011;3212;51.460;11.868;2024-03-22T06:39:35;25.20;;;11.93;;
6358;SDS011;3212;51.460;11.868;2024-03-22T06:42:57;24.50;;;12.03;;
6358;SDS011;3212;51.460;11.868;2024-03-22T06:46:20;30.37;;;13.30;;
6358;SDS011;3212;51.460;11.868;2024-03-22T06:49:43;26.97;;;12.37;;
6358;SDS011;3212;51.460;11.868;2024-03-22T06:53:05;36.43;;;14.27;;
6358;SDS011;3212;51.460;11.868;2024-03-22T06:56:28;26.30;;;13.17;;
6358;SDS011;3212;51.460;11.868;2024-03-22T06:59:51;30.13;;;12.37;;
6358;SDS011;3212;51.460;11.868;2024-03-22T07:03:19;28.93;;;12.60;;
6358;SDS011;3212;51.460;11.868;2024-03-22T07:06:42;31.13;;;13.40;;
6358;SDS011;3212;51.460;11.868;2024-03-22T07:10:04;24.37;;;12.40;;
6358;SDS011;3212;51.460;11.868;2024-03-22T07:13:27;27.00;;;11.93;;
6358;SDS011;3212;51.460;11.868;2024-03-22T07:16:50;22.07;;;11.30;;
6358;SDS011;3212;51.460;11.868;2024-03-22T07:20:13;24.87;;;11.93;;
6358;SDS011;3212;51.460;11.868;2024-03-22T07:23:37;28.90;;;13.30;;
6358;SDS011;3212;51.460;11.868;2024-03-22T07:26:59;27.73;;;12.27;;
6358;SDS011;3212;51.460;11.868;2024-03-22T07:30:23;25.73;;;12.57;;
6358;SDS011;3212;51.460;11.868;2024-03-22T07:33:47;24.20;;;11.83;;
6358;SDS011;3212;51.460;11.868;2024-03-22T07:37:09;27.40;;;13.20;;
6358;SDS011;3212;51.460;11.868;2024-03-22T07:40:32;27.10;;;12.80;;
6358;SDS011;3212;51.460;11.868;2024-03-22T07:43:55;27.93;;;12.97;;
6358;SDS011;3212;51.460;11.868;2024-03-22T07:47:17;29.50;;;12.47;;
6358;SDS011;3212;51.460;11.868;2024-03-22T07:50:40;23.87;;;12.30;;
6358;SDS011;3212;51.460;11.868;2024-03-22T07:54:03;33.03;;;14.77;;
6358;SDS011;3212;51.460;11.868;2024-03-22T07:57:25;27.00;;;12.43;;
6358;SDS011;3212;51.460;11.868;2024-03-22T08:00:48;28.03;;;12.80;;
6358;SDS011;3212;51.460;11.868;2024-03-22T08:04:10;33.87;;;13.97;;
6358;SDS011;3212;51.460;11.868;2024-03-22T08:07:32;29.83;;;14.13;;
6358;SDS011;3212;51.460;11.868;2024-03-22T08:10:55;30.07;;;13.83;;
6358;SDS011;3212;51.460;11.868;2024-03-22T08:14:18;33.37;;;14.50;;
6358;SDS011;3212;51.460;11.868;2024-03-22T08:17:40;27.90;;;12.63;;
6358;SDS011;3212;51.460;11.868;2024-03-22T08:21:03;26.47;;;12.83;;
6358;SDS011;3212;51.460;11.868;2024-03-22T08:24:27;29.07;;;14.20;;
6358;SDS011;3212;51.460;11.868;2024-03-22T08:27:49;30.43;;;13.67;;
6358;SDS011;3212;51.460;11.868;2024-03-22T08:31:11;23.60;;;11.67;;
6358;SDS011;3212;51.460;11.868;2024-03-22T08:34:35;27.33;;;13.53;;
6358;SDS011;3212;51.460;11.868;2024-03-22T08:37:57;28.47;;;13.33;;
6358;SDS011;3212;51.460;11.868;2024-03-22T08:41:20;26.43;;;12.83;;
6358;SDS011;3212;51.460;11.868;2024-03-22T08:44:44;26.93;;;12.10;;
6358;SDS011;3212;51.460;11.868;2024-03-22T08:48:06;23.97;;;12.73;;
6358;SDS011;3212;51.460;11.868;2024-03-22T08:51:28;25.90;;;12.10;;
6358;SDS011;3212;51.460;11.868;2024-03-22T08:54:52;24.13;;;12.37;;
6358;SDS011;3212;51.460;11.868;2024-03-22T08:58:15;25.10;;;11.13;;
6358;SDS011;3212;51.460;11.868;2024-03-22T09:01:37;26.05;;;11.10;;
6358;SDS011;3212;51.460;11.868;2024-03-22T09:05:00;26.47;;;11.97;;
6358;SDS011;3212;51.460;11.868;2024-03-22T09:08:23;24.30;;;10.80;;
6358;SDS011;3212;51.460;11.868;2024-03-22T09:11:46;23.97;;;11.33;;
6358;SDS011;3212;51.460;11.868;2024-03-22T09:15:09;26.37;;;11.40;;
6358;SDS011;3212;51.460;11.868;2024-03-22T09:18:32;23.67;;;12.03;;
6358;SDS011;3212;51.460;11.868;2024-03-22T09:21:54;23.30;;;11.37;;
6358;SDS011;3212;51.460;11.868;2024-03-22T09:25:17;21.23;;;9.83;;
6358;SDS011;3212;51.460;11.868;2024-03-22T09:28:40;21.17;;;10.60;;
6358;SDS011;3212;51.460;11.868;2024-03-22T09:32:03;22.23;;;10.40;;
6358;SDS011;3212;51.460;11.868;2024-03-22T09:35:25;19.33;;;9.40;;
6358;SDS011;3212;51.460;11.868;2024-03-22T09:38:49;19.80;;;9.83;;
6358;SDS011;3212;51.460;11.868;2024-03-22T09:42:13;19.43;;;9.80;;
6358;SDS011;3212;51.460;11.868;2024-03-22T09:45:35;21.00;;;9.70;;
6358;SDS011;3212;51.460;11.868;2024-03-22T09:48:58;20.27;;;9.47;;
6358;SDS011;3212;51.460;11.868;2024-03-22T09:52:21;22.00;;;8.63;;
6358;SDS011;3212;51.460;11.868;2024-03-22T09:55:44;18.23;;;9.63;;
6358;SDS011;3212;51.460;11.868;2024-03-22T09:59:06;17.60;;;8.70;;
6358;SDS011;3212;51.460;11.868;2024-03-22T10:02:29;18.60;;;9.23;;
6358;SDS011;3212;51.460;11.868;2024-03-22T10:05:51;17.20;;;8.47;;
6358;SDS011;3212;51.460;11.868;2024-03-22T10:09:15;17.13;;;8.23;;
6358;SDS011;3212;51.460;11.868;2024-03-22T10:12:37;17.13;;;8.53;;
6358;SDS011;3212;51.460;11.868;2024-03-22T10:15:59;14.63;;;7.53;;
6358;SDS011;3212;51.460;11.868;2024-03-22T10:19:22;16.80;;;8.30;;
6358;SDS011;3212;51.460;11.868;2024-03-22T10:22:48;19.27;;;7.93;;
6358;SDS011;3212;51.460;11.868;2024-03-22T10:26:12;15.83;;;8.40;;
6358;SDS011;3212;51.460;11.868;2024-03-22T10:29:36;13.87;;;7.73;;
6358;SDS011;3212;51.460;11.868;2024-03-22T10:32:59;16.47;;;8.63;;
6358;SDS011;3212;51.460;11.868;2024-03-22T10:36:22;17.93;;;8.87;;
6358;SDS011;3212;51.460;11.868;2024-03-22T10:39:44;16.10;;;9.23;;
6358;SDS011;3212;51.460;11.868;2024-03-22T10:43:07;16.97;;;8.53;;
6358;SDS011;3212;51.460;11.868;2024-03-22T10:46:30;17.63;;;9.00;;
6358;SDS011;3212;51.460;11.868;2024-03-22T10:49:52;14.97;;;8.10;;
6358;SDS011;3212;51.460;11.868;2024-03-22T10:53:17;18.00;;;8.77;;
6358;SDS011;3212;51.460;11.868;2024-03-22T10:56:39;18.53;;;9.10;;
6358;SDS011;3212;51.460;11.868;2024-03-22T11:00:01;21.27;;;9.03;;
6358;SDS011;3212;51.460;11.868;2024-03-22T11:03:24;18.20;;;9.80;;
6358;SDS011;3212;51.460;11.868;2024-03-22T11:06:47;19.73;;;10.37;;
6358;SDS011;3212;51.460;11.868;2024-03-22T11:10:11;18.80;;;10.10;;
6358;SDS011;3212;51.460;11.868;2024-03-22T11:13:35;19.43;;;9.60;;
6358;SDS011;3212;51.460;11.868;2024-03-22T11:16:55;18.30;;;9.67;;
6358;SDS011;3212;51.460;11.868;2024-03-22T11:20:18;19.80;;;10.03;;
6358;SDS011;3212;51.460;11.868;2024-03-22T11:23:40;18.50;;;10.53;;
6358;SDS011;3212;51.460;11.868;2024-03-22T11:27:03;21.53;;;10.73;;
6358;SDS011;3212;51.460;11.868;2024-03-22T11:30:25;19.53;;;10.60;;
6358;SDS011;3212;51.460;11.868;2024-03-22T11:33:48;18.87;;;9.80;;
6358;SDS011;3212;51.460;11.868;2024-03-22T11:37:10;21.60;;;11.00;;
6358;SDS011;3212;51.460;11.868;2024-03-22T11:40:33;20.70;;;10.70;;
6358;SDS011;3212;51.460;11.868;2024-03-22T11:43:57;19.13;;;10.17;;
6358;SDS011;3212;51.460;11.868;2024-03-22T11:47:20;18.27;;;10.30;;
6358;SDS011;3212;51.460;11.868;2024-03-22T11:50:43;19.67;;;10.27;;
6358;SDS011;3212;51.460;11.868;2024-03-22T11:54:06;17.90;;;9.60;;
6358;SDS011;3212;51.460;11.868;2024-03-22T11:57:29;16.73;;;9.77;;
6358;SDS011;3212;51.460;11.868;2024-03-22T12:00:52;18.57;;;10.43;;
6358;SDS011;3212;51.460;11.868;2024-03-22T12:04:16;19.30;;;10.50;;
6358;SDS011;3212;51.460;11.868;2024-03-22T12:07:39;18.00;;;9.70;;
6358;SDS011;3212;51.460;11.868;2024-03-22T12:11:00;19.23;;;10.73;;
6358;SDS011;3212;51.460;11.868;2024-03-22T12:14:24;19.13;;;10.50;;
6358;SDS011;3212;51.460;11.868;2024-03-22T12:17:46;21.57;;;10.57;;
6358;SDS011;3212;51.460;11.868;2024-03-22T12:21:08;17.87;;;10.40;;
6358;SDS011;3212;51.460;11.868;2024-03-22T12:24:31;20.13;;;11.53;;
6358;SDS011;3212;51.460;11.868;2024-03-22T12:27:54;20.10;;;10.83;;
6358;SDS011;3212;51.460;11.868;2024-03-22T12:31:17;20.53;;;11.20;;
6358;SDS011;3212;51.460;11.868;2024-03-22T12:34:39;19.97;;;11.73;;
6358;SDS011;3212;51.460;11.868;2024-03-22T12:38:01;21.93;;;12.70;;
6358;SDS011;3212;51.460;11.868;2024-03-22T12:41:24;25.30;;;12.23;;
6358;SDS011;3212;51.460;11.868;2024-03-22T12:44:47;20.90;;;11.63;;
6358;SDS011;3212;51.460;11.868;2024-03-22T12:48:09;23.30;;;11.73;;
6358;SDS011;3212;51.460;11.868;2024-03-22T12:51:32;23.83;;;12.37;;
6358;SDS011;3212;51.460;11.868;2024-03-22T12:54:55;22.30;;;12.10;;
6358;SDS011;3212;51.460;11.868;2024-03-22T12:58:17;22.30;;;12.83;;
6358;SDS011;3212;51.460;11.868;2024-03-22T13:01:40;26.03;;;13.53;;
6358;SDS011;3212;51.460;11.868;2024-03-22T13:05:03;23.87;;;12.67;;
6358;SDS011;3212;51.460;11.868;2024-03-22T13:08:27;28.13;;;13.20;;
6358;SDS011;3212;51.460;11.868;2024-03-22T13:11:50;22.40;;;12.67;;
6358;SDS011;3212;51.460;11.868;2024-03-22T13:15:13;23.87;;;12.53;;
6358;SDS011;3212;51.460;11.868;2024-03-22T13:18:36;23.33;;;12.17;;
6358;SDS011;3212;51.460;11.868;2024-03-22T13:21:59;22.23;;;12.20;;
6358;SDS011;3212;51.460;11.868;2024-03-22T13:25:21;21.13;;;11.30;;
6358;SDS011;3212;51.460;11.868;2024-03-22T13:28:43;19.67;;;11.60;;
6358;SDS011;3212;51.460;11.868;2024-03-22T13:32:06;20.10;;;11.90;;
6358;SDS011;3212;51.460;11.868;2024-03-22T13:35:29;21.63;;;11.33;;
6358;SDS011;3212;51.460;11.868;2024-03-22T13:38:58;23.63;;;11.50;;
6358;SDS011;3212;51.460;11.868;2024-03-22T13:42:21;19.73;;;10.93;;
6358;SDS011;3212;51.460;11.868;2024-03-22T13:45:44;23.93;;;12.20;;
6358;SDS011;3212;51.460;11.868;2024-03-22T13:49:13;19.37;;;10.47;;
6358;SDS011;3212;51.460;11.868;2024-03-22T13:52:35;20.03;;;11.23;;
6358;SDS011;3212;51.460;11.868;2024-03-22T13:55:58;19.53;;;10.87;;
6358;SDS011;3212;51.460;11.868;2024-03-22T13:59:20;17.90;;;9.50;;
6358;SDS011;3212;51.460;11.868;2024-03-22T14:02:43;19.40;;;10.30;;
6358;SDS011;3212;51.460;11.868;2024-03-22T14:06:06;20.30;;;9.50;;
6358;SDS011;3212;51.460;11.868;2024-03-22T14:09:31;19.10;;;9.80;;
6358;SDS011;3212;51.460;11.868;2024-03-22T14:12:53;16.35;;;10.07;;
6358;SDS011;3212;51.460;11.868;2024-03-22T14:16:16;15.33;;;9.30;;
6358;SDS011;3212;51.460;11.868;2024-03-22T14:19:39;18.97;;;10.23;;
6358;SDS011;3212;51.460;11.868;2024-03-22T14:23:01;16.80;;;9.60;;
6358;SDS011;3212;51.460;11.868;2024-03-22T14:26:24;17.53;;;9.90;;
6358;SDS011;3212;51.460;11.868;2024-03-22T14:29:47;17.07;;;9.37;;
6358;SDS011;3212;51.460;11.868;2024-03-22T14:33:10;18.37;;;9.00;;
6358;SDS011;3212;51.460;11.868;2024-03-22T14:36:32;19.37;;;9.60;;
6358;SDS011;3212;51.460;11.868;2024-03-22T14:39:56;19.00;;;9.87;;
6358;SDS011;3212;51.460;11.868;2024-03-22T14:43:18;18.90;;;10.20;;
6358;SDS011;3212;51.460;11.868;2024-03-22T14:46:41;18.63;;;9.37;;
6358;SDS011;3212;51.460;11.868;2024-03-22T14:50:04;15.93;;;9.70;;
6358;SDS011;3212;51.460;11.868;2024-03-22T14:53:27;15.30;;;9.00;;
6358;SDS011;3212;51.460;11.868;2024-03-22T14:56:49;14.67;;;8.97;;
6358;SDS011;3212;51.460;11.868;2024-03-22T15:00:12;13.83;;;8.87;;
6358;SDS011;3212;51.460;11.868;2024-03-22T15:03:36;16.30;;;9.00;;
6358;SDS011;3212;51.460;11.868;2024-03-22T15:06:58;18.37;;;9.70;;
6358;SDS011;3212;51.460;11.868;2024-03-22T15:10:20;17.17;;;9.47;;
6358;SDS011;3212;51.460;11.868;2024-03-22T15:13:43;16.30;;;8.97;;
6358;SDS011;3212;51.460;11.868;2024-03-22T15:17:06;17.40;;;8.98;;
6358;SDS011;3212;51.460;11.868;2024-03-22T15:20:28;13.97;;;8.77;;
6358;SDS011;3212;51.460;11.868;2024-03-22T15:23:51;18.67;;;8.93;;
6358;SDS011;3212;51.460;11.868;2024-03-22T15:27:14;14.03;;;7.60;;
6358;SDS011;3212;51.460;11.868;2024-03-22T15:30:37;14.27;;;8.10;;
6358;SDS011;3212;51.460;11.868;2024-03-22T15:33:59;14.83;;;7.83;;
6358;SDS011;3212;51.460;11.868;2024-03-22T15:37:22;13.17;;;8.00;;
6358;SDS011;3212;51.460;11.868;2024-03-22T15:40:44;16.70;;;8.40;;
6358;SDS011;3212;51.460;11.868;2024-03-22T15:44:07;13.13;;;8.60;;
6358;SDS011;3212;51.460;11.868;2024-03-22T15:47:29;14.30;;;8.20;;
6358;SDS011;3212;51.460;11.868;2024-03-22T15:50:51;15.73;;;8.80;;
6358;SDS011;3212;51.460;11.868;2024-03-22T15:54:14;14.80;;;8.70;;
6358;SDS011;3212;51.460;11.868;2024-03-22T15:57:36;16.00;;;8.93;;
6358;SDS011;3212;51.460;11.868;2024-03-22T16:00:59;19.20;;;8.53;;
6358;SDS011;3212;51.460;11.868;2024-03-22T16:04:21;14.00;;;8.77;;
6358;SDS011;3212;51.460;11.868;2024-03-22T16:07:44;16.63;;;8.30;;
6358;SDS011;3212;51.460;11.868;2024-03-22T16:11:07;19.90;;;10.33;;
6358;SDS011;3212;51.460;11.868;2024-03-22T16:14:29;16.10;;;9.00;;
6358;SDS011;3212;51.460;11.868;2024-03-22T16:17:51;18.93;;;9.50;;
6358;SDS011;3212;51.460;11.868;2024-03-22T16:21:14;17.67;;;9.33;;
6358;SDS011;3212;51.460;11.868;2024-03-22T16:24:36;14.57;;;8.93;;
6358;SDS011;3212;51.460;11.868;2024-03-22T16:27:59;16.20;;;9.77;;
6358;SDS011;3212;51.460;11.868;2024-03-22T16:31:22;17.23;;;10.43;;
6358;SDS011;3212;51.460;11.868;2024-03-22T16:34:44;22.43;;;10.10;;
6358;SDS011;3212;51.460;11.868;2024-03-22T16:38:07;18.40;;;10.20;;
6358;SDS011;3212;51.460;11.868;2024-03-22T16:41:30;17.03;;;9.80;;
6358;SDS011;3212;51.460;11.868;2024-03-22T16:44:52;18.00;;;10.70;;
6358;SDS011;3212;51.460;11.868;2024-03-22T16:48:15;18.33;;;10.33;;
6358;SDS011;3212;51.460;11.868;2024-03-22T16:51:37;20.33;;;10.87;;
6358;SDS011;3212;51.460;11.868;2024-03-22T16:55:00;20.20;;;11.87;;
6358;SDS011;3212;51.460;11.868;2024-03-22T16:58:23;18.20;;;10.83;;
6358;SDS011;3212;51.460;11.868;2024-03-22T17:01:46;21.47;;;11.60;;
6358;SDS011;3212;51.460;11.868;2024-03-22T17:05:08;18.63;;;10.13;;
6358;SDS011;3212;51.460;11.868;2024-03-22T17:08:31;20.83;;;11.83;;
6358;SDS011;3212;51.460;11.868;2024-03-22T17:11:54;21.47;;;11.20;;
6358;SDS011;3212;51.460;11.868;2024-03-22T17:15:16;20.50;;;11.03;;
6358;SDS011;3212;51.460;11.868;2024-03-22T17:18:39;21.77;;;11.93;;
6358;SDS011;3212;51.460;11.868;2024-03-22T17:22:02;20.70;;;11.03;;
6358;SDS011;3212;51.460;11.868;2024-03-22T17:25:24;20.53;;;11.13;;
6358;SDS011;3212;51.460;11.868;2024-03-22T17:28:47;21.20;;;11.90;;
6358;SDS011;3212;51.460;11.868;2024-03-22T17:32:10;22.37;;;12.63;;
6358;SDS011;3212;51.460;11.868;2024-03-22T17:35:33;23.07;;;12.50;;
6358;SDS011;3212;51.460;11.868;2024-03-22T17:38:55;18.23;;;11.27;;
6358;SDS011;3212;51.460;11.868;2024-03-22T17:42:19;21.80;;;11.37;;
6358;SDS011;3212;51.460;11.868;2024-03-22T17:45:41;18.30;;;10.73;;
6358;SDS011;3212;51.460;11.868;2024-03-22T17:49:03;18.27;;;10.87;;
6358;SDS011;3212;51.460;11.868;2024-03-22T17:52:26;20.30;;;10.87;;
6358;SDS011;3212;51.460;11.868;2024-03-22T17:55:49;17.23;;;10.07;;
6358;SDS011;3212;51.460;11.868;2024-03-22T17:59:12;21.10;;;11.40;;
6358;SDS011;3212;51.460;11.868;2024-03-22T18:02:34;19.80;;;11.00;;
6358;SDS011;3212;51.460;11.868;2024-03-22T18:05:57;19.87;;;10.53;;
6358;SDS011;3212;51.460;11.868;2024-03-22T18:09:21;18.37;;;9.93;;
6358;SDS011;3212;51.460;11.868;2024-03-22T18:12:44;19.37;;;10.80;;
6358;SDS011;3212;51.460;11.868;2024-03-22T18:16:06;20.07;;;11.03;;
6358;SDS011;3212;51.460;11.868;2024-03-22T18:19:29;21.90;;;12.07;;
6358;SDS011;3212;51.460;11.868;2024-03-22T18:22:51;19.80;;;10.60;;
6358;SDS011;3212;51.460;11.868;2024-03-22T18:26:15;22.07;;;10.70;;
6358;SDS011;3212;51.460;11.868;2024-03-22T18:29:38;19.40;;;10.73;;
6358;SDS011;3212;51.460;11.868;2024-03-22T18:33:00;19.50;;;11.50;;
6358;SDS011;3212;51.460;11.868;2024-03-22T18:36:24;19.67;;;11.07;;
6358;SDS011;3212;51.460;11.868;2024-03-22T18:39:47;21.07;;;10.87;;
6358;SDS011;3212;51.460;11.868;2024-03-22T18:43:09;19.47;;;11.10;;
6358;SDS011;3212;51.460;11.868;2024-03-22T18:46:32;19.90;;;10.80;;
6358;SDS011;3212;51.460;11.868;2024-03-22T18:49:54;20.13;;;10.80;;
6358;SDS011;3212;51.460;11.868;2024-03-22T18:53:16;23.00;;;11.80;;
6358;SDS011;3212;51.460;11.868;2024-03-22T18:56:39;21.80;;;11.97;;
6358;SDS011;3212;51.460;11.868;2024-03-22T19:00:02;25.97;;;13.13;;
6358;SDS011;3212;51.460;11.868;2024-03-22T19:03:26;34.13;;;15.97;;
6358;SDS011;3212;51.460;11.868;2024-03-22T19:06:49;26.27;;;14.10;;
6358;SDS011;3212;51.460;11.868;2024-03-22T19:10:11;30.30;;;16.30;;
6358;SDS011;3212;51.460;11.868;2024-03-22T19:13:33;28.40;;;15.90;;
6358;SDS011;3212;51.460;11.868;2024-03-22T19:16:56;28.80;;;16.30;;
6358;SDS011;3212;51.460;11.868;2024-03-22T19:20:18;31.50;;;15.77;;
6358;SDS011;3212;51.460;11.868;2024-03-22T19:23:41;31.13;;;16.17;;
6358;SDS011;3212;51.460;11.868;2024-03-22T19:27:04;29.23;;;15.77;;
6358;SDS011;3212;51.460;11.868;2024-03-22T19:30:26;30.70;;;16.23;;
6358;SDS011;3212;51.460;11.868;2024-03-22T19:33:49;29.00;;;15.80;;
6358;SDS011;3212;51.460;11.868;2024-03-22T19:37:11;30.57;;;16.03;;
6358;SDS011;3212;51.460;11.868;2024-03-22T19:40:34;31.13;;;16.30;;
6358;SDS011;3212;51.460;11.868;2024-03-22T19:43:57;29.90;;;16.80;;
6358;SDS011;3212;51.460;11.868;2024-03-22T19:47:19;29.40;;;17.53;;
6358;SDS011;3212;51.460;11.868;2024-03-22T19:50:42;35.60;;;19.27;;
6358;SDS011;3212;51.460;11.868;2024-03-22T19:54:06;44.87;;;21.17;;
6358;SDS011;3212;51.460;11.868;2024-03-22T19:57:28;38.07;;;21.30;;
6358;SDS011;3212;51.460;11.868;2024-03-22T20:00:56;36.53;;;19.90;;
6358;SDS011;3212;51.460;11.868;2024-03-22T20:04:14;37.00;;;21.10;;
6358;SDS011;3212;51.460;11.868;2024-03-22T20:07:37;43.27;;;22.40;;
6358;SDS011;3212;51.460;11.868;2024-03-22T20:10:59;41.57;;;21.43;;
6358;SDS011;3212;51.460;11.868;2024-03-22T20:14:22;40.28;;;22.35;;